Time;durP1;ratioP1;P1;durP2;ratioP2;P2;SDS_P1;SDS_P2;PMS_P1;PMS_P2;Temp;Humidity;BMP_temperature;BMP_pressure;BME280_temperature;BME280_humidity;BME280_pressure;Samples;Min_cycle;Max_cycle;Signal;HPM_P1;HPM_P2
2022/06/08 00:04:31;;;;;;;30.85;20.65;;;;;;;16.15;100.00;100133.27;3674284;79;99240;-85
2022/06/08 00:09:33;;;;;;;33.00;21.93;;;;;;;16.14;100.00;100127.54;3636386;79;99313;-85
2022/06/08 00:14:35;;;;;;;39.95;23.70;;;;;;;16.14;100.00;100122.75;3660226;79;99430;-86
2022/06/08 00:19:36;;;;;;;39.25;24.10;;;;;;;16.16;100.00;100130.67;3654463;80;99640;-85
2022/06/08 00:24:37;;;;;;;38.92;25.97;;;;;;;16.17;100.00;100129.46;3654005;80;99706;-85
2022/06/08 00:29:38;;;;;;;44.98;28.75;;;;;;;16.16;100.00;100124.53;3643661;79;98827;-85
2022/06/08 00:34:39;;;;;;;43.00;26.70;;;;;;;16.13;100.00;100122.58;3589279;81;99205;-85
2022/06/08 00:39:41;;;;;;;43.08;26.42;;;;;;;16.06;100.00;100121.31;3674457;79;99533;-86
2022/06/08 00:44:49;;;;;;;38.02;24.90;;;;;;;16.00;100.00;100118.04;3700870;79;98940;-86
2022/06/08 00:49:58;;;;;;;36.05;24.43;;;;;;;16.00;100.00;100116.66;3684679;79;99640;-86
2022/06/08 00:55:04;;;;;;;38.60;24.43;;;;;;;16.01;100.00;100116.83;3694626;79;99669;-85
2022/06/08 01:00:17;;;;;;;;;;;;;;;15.97;100.00;100113.34;3673411;79;99739;-85
2022/06/08 01:05:48;;;;;;;30.55;19.77;;;;;;;15.94;100.00;100111.40;3708216;79;33408;-86
2022/06/08 01:10:54;;;;;;;29.07;18.20;;;;;;;15.87;100.00;100108.13;3662900;79;99525;-86
2022/06/08 01:15:56;;;;;;;30.68;22.10;;;;;;;15.83;100.00;100099.09;3692524;79;98856;-85
2022/06/08 01:21:26;;;;;;;31.48;20.37;;;;;;;15.80;100.00;100088.81;3651509;80;99425;-86
2022/06/08 01:26:44;;;;;;;34.33;21.07;;;;;;;15.75;100.00;100086.51;3642143;79;99284;-86
2022/06/08 01:32:12;;;;;;;28.75;19.40;;;;;;;15.70;100.00;100089.75;3672063;79;99805;-86
2022/06/08 01:37:39;;;;;;;24.77;16.48;;;;;;;15.66;100.00;100093.20;3650595;80;99701;-86
2022/06/08 01:43:13;;;;;;;33.50;19.90;;;;;;;15.62;100.00;100088.89;3667381;79;99692;-86
2022/06/08 01:48:37;;;;;;;31.95;20.37;;;;;;;15.58;100.00;100084.02;3671197;79;99844;-85
2022/06/08 01:54:04;;;;;;;40.08;19.48;;;;;;;15.56;100.00;100081.66;3679230;79;32374;-85
2022/06/08 01:59:09;;;;;;;;;;;;;;;15.55;100.00;100077.32;3701613;79;99213;-86
2022/06/08 02:04:21;;;;;;;36.95;18.42;;;;;;;15.49;100.00;100068.49;3699724;79;85207;-85
2022/06/08 02:09:31;;;;;;;26.60;18.82;;;;;;;15.45;100.00;100065.77;3684481;79;99248;-86
2022/06/08 02:14:40;;;;;;;26.37;19.32;;;;;;;15.45;100.00;100059.43;3691086;79;99406;-85
2022/06/08 02:19:54;;;;;;;22.60;16.27;;;;;;;15.45;100.00;100046.95;3685725;79;98910;-85
2022/06/08 02:25:04;;;;;;;32.20;19.02;;;;;;;15.45;100.00;100046.95;3702165;79;99373;-86
2022/06/08 02:30:13;;;;;;;23.77;17.55;;;;;;;15.47;100.00;100043.95;3650569;79;99186;-85
2022/06/08 02:35:20;;;;;;;29.23;18.98;;;;;;;15.47;100.00;100050.87;3650385;80;98184;-86
2022/06/08 02:40:27;;;;;;;25.70;18.98;;;;;;;15.46;100.00;100045.16;3637343;80;99261;-85
2022/06/08 02:45:39;;;;;;;26.68;18.35;;;;;;;15.45;100.00;100042.20;3689754;79;98613;-85
2022/06/08 02:50:51;;;;;;;23.92;17.55;;;;;;;15.47;100.00;100048.11;3653445;79;99781;-85
2022/06/08 02:56:14;;;;;;;24.67;17.35;;;;;;;15.47;100.00;100050.87;3601821;80;99673;-85
2022/06/08 03:01:21;;;;;;;23.40;17.40;;;;;;;15.49;100.00;100057.40;3631932;80;99366;-85
2022/06/08 03:06:27;;;;;;;23.12;15.98;;;;;;;15.52;100.00;100056.55;3582924;80;99747;-84
2022/06/08 03:11:36;;;;;;;23.00;16.60;;;;;;;15.52;100.00;100055.95;3593403;80;27491;-85
2022/06/08 03:16:41;;;;;;;23.57;16.05;;;;;;;15.55;100.00;100066.23;3672216;79;99563;-84
2022/06/08 03:21:43;;;;;;;25.10;17.35;;;;;;;15.56;100.00;100065.02;3666097;79;99549;-85
2022/06/08 03:26:49;;;;;;;23.92;15.48;;;;;;;15.61;100.00;100067.91;3693494;79;99320;-84
2022/06/08 03:31:50;;;;;;;22.85;16.17;;;;;;;15.60;100.00;100067.11;3686838;79;99403;-85
2022/06/08 03:36:52;;;;;;;21.57;15.60;;;;;;;15.63;100.00;100065.49;3653497;79;100145;-85
2022/06/08 03:41:53;;;;;;;20.95;15.85;;;;;;;15.65;100.00;100071.42;3658328;80;31552;-84
2022/06/08 03:47:05;;;;;;;18.62;13.30;;;;;;;15.69;100.00;100069.39;3664016;79;99201;-85
2022/06/08 03:52:12;;;;;;;21.62;15.40;;;;;;;15.72;100.00;100073.49;3585610;81;99218;-84
2022/06/08 03:57:14;;;;;;;21.93;16.23;;;;;;;15.77;100.00;100073.61;3674710;79;99424;-85
2022/06/08 04:02:16;;;;;;;22.27;16.97;;;;;;;15.81;100.00;100067.41;3625414;80;99736;-84
2022/06/08 04:07:17;;;;;;;26.50;18.60;;;;;;;15.86;100.00;100068.33;3652222;79;100319;-83
2022/06/08 04:12:22;;;;;;;33.83;17.27;;;;;;;15.87;100.00;100070.66;3696106;78;99403;-83
2022/06/08 04:17:21;;;;;;;25.75;17.27;;;;;;;15.83;100.00;100069.16;3669520;78;98982;-85
2022/06/08 04:22:25;;;;;;;23.20;16.32;;;;;;;15.78;100.00;100067.65;3671397;79;99533;-85
2022/06/08 04:27:27;;;;;;;24.25;17.20;;;;;;;15.83;100.00;100077.48;3662686;79;99344;-85
2022/06/08 04:32:28;;;;;;;31.45;19.17;;;;;;;15.88;100.00;100077.00;3608842;80;99718;-86
2022/06/08 04:37:29;;;;;;;32.60;20.23;;;;;;;15.95;100.00;100066.58;3643747;79;99489;-85
2022/06/08 04:42:30;;;;;;;38.05;23.65;;;;;;;16.03;100.00;100070.02;3646585;79;99857;-83
2022/06/08 04:47:31;;;;;;;36.27;23.70;;;;;;;16.08;100.00;100067.53;3653193;79;99027;-85
2022/06/08 04:52:32;;;;;;;29.90;21.40;;;;;;;16.13;100.00;100071.22;3658442;79;99227;-85
2022/06/08 04:57:36;;;;;;;31.48;20.88;;;;;;;16.26;100.00;100073.59;3638855;79;99574;-84
2022/06/08 05:02:43;;;;;;;29.67;20.45;;;;;;;16.39;100.00;100073.77;3646512;79;99426;-85
2022/06/08 05:07:45;;;;;;;35.05;23.38;;;;;;;16.52;100.00;100072.72;3688827;78;100469;-85
2022/06/08 05:12:47;;;;;;;30.00;21.15;;;;;;;16.67;100.00;100069.86;3692729;78;99858;-85
2022/06/08 05:17:48;;;;;;;31.68;21.27;;;;;;;16.80;100.00;100068.03;3701762;78;99062;-85
2022/06/08 05:22:51;;;;;;;28.70;20.05;;;;;;;16.89;100.00;100065.45;3696566;78;99459;-85
2022/06/08 05:27:52;;;;;;;34.85;23.62;;;;;;;17.00;100.00;100068.03;3688851;78;99910;-85
2022/06/08 05:32:54;;;;;;;29.63;21.85;;;;;;;17.08;100.00;100067.45;3711881;78;99353;-86
2022/06/08 05:37:55;;;;;;;27.98;19.42;;;;;;;17.16;100.00;100068.86;3677681;78;100364;-88
2022/06/08 05:42:56;;;;;;;35.95;23.67;;;;;;;17.27;100.00;100065.86;3692997;79;99930;-87
2022/06/08 05:47:58;;;;;;;31.50;22.37;;;;;;;17.37;100.00;100062.84;3695541;78;99064;-88
2022/06/08 05:53:00;;;;;;;34.23;23.07;;;;;;;17.50;100.00;100063.75;3690874;78;99534;-87
2022/06/08 05:58:01;;;;;;;28.10;19.95;;;;;;;17.56;100.00;100067.58;3666827;78;99396;-89
2022/06/08 06:03:03;;;;;;;28.70;21.25;;;;;;;17.63;100.00;100068.83;3683170;78;99818;-88
2022/06/08 06:08:05;;;;;;;27.58;19.98;;;;;;;17.75;100.00;100057.61;3677249;78;100336;-89
2022/06/08 06:13:06;;;;;;;25.10;19.52;;;;;;;17.76;100.00;100048.83;3694322;78;100053;-88
2022/06/08 06:18:08;;;;;;;25.97;19.75;;;;;;;18.02;100.00;100058.93;3683527;78;99362;-88
2022/06/08 06:23:09;;;;;;;26.55;18.77;;;;;;;18.18;100.00;100060.31;3697230;78;99442;-86
2022/06/08 06:28:10;;;;;;;27.25;19.77;;;;;;;18.41;100.00;100060.73;3677339;78;99315;-87
2022/06/08 06:33:14;;;;;;;25.88;18.07;;;;;;;18.64;100.00;100057.10;3688198;78;99751;-86
2022/06/08 06:38:15;;;;;;;25.45;20.30;;;;;;;19.11;99.86;100062.94;3585102;81;100307;-89
2022/06/08 06:43:17;;;;;;;29.90;18.23;;;;;;;19.46;96.45;100056.34;3648070;80;99722;-90
2022/06/08 06:48:18;;;;;;;21.52;17.67;;;;;;;19.77;96.28;100059.52;3645296;79;99533;-88
2022/06/08 06:53:19;;;;;;;21.87;17.70;;;;;;;19.90;92.52;100063.70;3672040;79;32461;-88
2022/06/08 06:58:21;;;;;;;20.95;16.17;;;;;;;20.35;94.19;100061.39;3586960;81;99436;-88
2022/06/08 07:03:22;;;;;;;23.62;15.60;;;;;;;21.11;91.62;100061.26;3647744;79;99202;-88
2022/06/08 07:08:24;;;;;;;20.32;14.20;;;;;;;21.61;91.56;100060.91;3576411;81;99288;-89
2022/06/08 07:13:25;;;;;;;21.50;15.63;;;;;;;22.05;88.33;100066.53;3571430;81;99359;-89
2022/06/08 07:18:28;;;;;;;18.82;14.75;;;;;;;22.71;86.76;100060.89;3633246;79;99150;-89
2022/06/08 07:23:29;;;;;;;18.02;14.13;;;;;;;23.11;84.04;100042.45;3633790;79;32608;-89
2022/06/08 07:28:30;;;;;;;21.75;13.88;;;;;;;23.66;82.94;100046.67;3579749;81;99937;-88
2022/06/08 07:33:33;;;;;;;15.40;11.95;;;;;;;24.15;81.10;100058.31;3627345;79;99557;-89
2022/06/08 07:38:34;;;;;;;16.93;12.88;;;;;;;24.59;79.56;100057.87;3680839;78;100191;-87
2022/06/08 07:43:36;;;;;;;16.07;12.75;;;;;;;24.60;72.37;100053.80;3681759;78;99351;-90
2022/06/08 07:53:56;;;;;;;71.70;16.52;;;;;;;24.28;75.35;100053.22;3696819;78;25992;-88
2022/06/08 07:58:57;;;;;;;14.98;10.30;;;;;;;25.39;76.98;100041.50;3675980;78;99321;-87
2022/06/08 08:03:59;;;;;;;12.13;9.40;;;;;;;25.99;73.61;100048.09;3688185;78;99002;-89
2022/06/08 08:09:00;;;;;;;13.70;9.58;;;;;;;26.73;72.86;100052.16;3680888;78;99676;-89
2022/06/08 08:14:01;;;;;;;10.90;7.92;;;;;;;27.30;69.71;100049.58;3679919;78;99287;-88
2022/06/08 08:19:03;;;;;;;13.13;8.73;;;;;;;27.84;68.07;100053.41;3684255;78;99041;-88
2022/06/08 08:24:06;;;;;;;13.03;10.10;;;;;;;28.07;65.98;100049.43;3685568;78;33065;-89
2022/06/08 08:29:07;;;;;;;15.32;8.33;;;;;;;27.88;63.36;100056.75;3684650;78;98925;-88
2022/06/08 08:34:08;;;;;;;12.93;8.83;;;;;;;28.27;64.40;100053.55;3688825;78;98768;-90
2022/06/08 08:39:12;;;;;;;10.63;6.92;;;;;;;28.66;63.07;100052.44;3546856;81;98811;-89
2022/06/08 08:44:27;;;;;;;11.18;7.95;;;;;;;28.78;60.24;100058.27;3655648;79;99024;-89
2022/06/08 08:49:32;;;;;;;11.05;7.72;;;;;;;28.70;58.72;100061.47;3639604;79;99127;-89
2022/06/08 08:54:39;;;;;;;11.30;7.72;;;;;;;28.78;58.40;100045.52;3562822;81;99535;-87
2022/06/08 08:59:46;;;;;;;13.50;8.85;;;;;;;28.97;56.97;100039.56;3624788;81;99119;-89
2022/06/08 09:04:47;;;;;;;14.05;8.85;;;;;;;29.23;55.78;100030.20;3643504;79;99297;-90
2022/06/08 09:09:49;;;;;;;11.12;8.28;;;;;;;29.38;55.20;100031.36;3637554;79;99547;-90
2022/06/08 09:15:00;;;;;;;11.15;6.72;;;;;;;29.63;55.67;100024.03;3671572;79;99390;-89
2022/06/08 09:20:30;;;;;;;13.25;9.03;;;;;;;29.97;53.02;100024.77;3560667;81;99478;-90
2022/06/08 09:25:38;;;;;;;10.63;6.65;;;;;;;29.72;52.11;100022.98;3658312;79;98963;-91
2022/06/08 09:30:49;;;;;;;10.85;6.60;;;;;;;29.68;52.53;100011.91;3573775;80;98999;-90
2022/06/08 09:36:01;;;;;;;8.33;5.28;;;;;;;29.77;51.77;100017.95;3585687;80;27474;-89
2022/06/08 09:41:32;;;;;;;5.97;4.12;;;;;;;29.66;50.20;100017.97;3634687;79;98458;-90
2022/06/08 09:52:51;;;;;;;13.55;5.78;;;;;;;28.78;48.53;100004.45;3668313;79;98383;-91
2022/06/08 09:58:18;;;;;;;10.43;5.05;;;;;;;28.79;49.76;100003.81;3665778;79;99293;-90
2022/06/08 10:03:34;;;;;;;8.33;4.08;;;;;;;28.76;48.60;100001.36;3682336;78;98225;-87
2022/06/08 10:08:59;;;;;;;5.85;3.40;;;;;;;28.51;49.06;99993.84;3687163;79;99453;-88
2022/06/08 10:14:21;;;;;;;8.28;2.87;;;;;;;28.27;45.61;99998.34;3680247;79;98691;-90
2022/06/08 10:20:11;;;;;;;9.65;4.45;;;;;;;27.84;45.19;99990.52;3682042;78;98698;-88
2022/06/08 10:25:42;;;;;;;6.75;3.62;;;;;;;27.96;45.64;99988.54;3674513;79;98699;-89
2022/06/08 10:30:51;;;;;;;5.75;3.00;;;;;;;28.18;45.41;99990.06;3695043;78;99065;-89
2022/06/08 10:35:55;;;;;;;9.05;3.52;;;;;;;28.56;46.61;99976.73;3686141;78;28707;-91
2022/06/08 10:46:47;;;;;;;6.22;3.12;;;;;;;29.28;44.97;99981.88;3640553;79;98827;-88
2022/06/08 10:52:16;;;;;;;6.97;2.45;;;;;;;29.90;44.76;99990.58;3600618;80;98506;-89
2022/06/08 10:57:43;;;;;;;5.67;2.98;;;;;;;29.84;42.59;99986.99;3644131;78;98598;-90
2022/06/08 11:03:02;;;;;;;4.40;2.17;;;;;;;29.36;41.58;99981.50;3676389;78;98613;-90
2022/06/08 11:08:12;;;;;;;4.12;2.10;;;;;;;29.56;43.57;99979.81;3691291;78;98544;-90
2022/06/08 11:13:25;;;;;;;6.62;3.42;;;;;;;29.90;42.69;99984.91;3702320;78;99116;-90
2022/06/08 11:18:48;;;;;;;5.40;3.17;;;;;;;30.25;41.61;99980.81;3691338;78;98746;-90
2022/06/08 11:24:03;;;;;;;5.22;2.22;;;;;;;30.11;41.19;99971.19;3692204;78;27368;-90
2022/06/08 11:29:22;;;;;;;8.35;2.95;;;;;;;30.30;41.98;99972.16;3667694;78;98946;-88
2022/06/08 11:34:38;;;;;;;6.03;2.65;;;;;;;31.06;41.30;99956.72;3689614;78;98477;-89
2022/06/08 11:40:12;;;;;;;5.17;2.37;;;;;;;31.26;39.91;99959.82;3686562;78;99399;-87
2022/06/08 11:45:23;;;;;;;5.10;2.70;;;;;;;31.79;39.24;99951.96;3679582;79;98717;-90
2022/06/08 11:50:33;;;;;;;5.85;2.00;;;;;;;31.65;37.42;99950.29;3666602;79;98579;-87
2022/06/08 11:55:51;;;;;;;4.62;2.10;;;;;;;31.45;36.92;99951.49;3677036;79;99013;-88
2022/06/08 12:01:10;;;;;;;4.53;1.92;;;;;;;31.52;38.17;99939.55;3679352;78;98538;-89
2022/06/08 12:06:22;;;;;;;7.08;2.10;;;;;;;32.03;37.55;99932.78;3658910;79;27476;-88
2022/06/08 12:11:33;;;;;;;5.33;2.00;;;;;;;31.85;35.76;99933.53;3691821;79;98754;-88
2022/06/08 12:16:37;;;;;;;3.65;2.10;;;;;;;31.95;36.75;99919.69;3674265;79;98631;-87
2022/06/08 12:21:41;;;;;;;3.67;2.25;;;;;;;32.15;37.51;99913.50;3700541;78;98742;-88
2022/06/08 12:27:14;;;;;;;4.62;2.30;;;;;;;32.41;37.04;99908.00;3598917;80;98645;-87
2022/06/08 12:32:20;;;;;;;4.80;2.30;;;;;;;32.61;37.25;99895.38;3700243;78;98262;-88
2022/06/08 12:37:38;;;;;;;4.40;2.00;;;;;;;32.20;35.21;99902.02;3662626;79;98542;-88
2022/06/08 12:42:56;;;;;;;5.47;1.90;;;;;;;32.30;36.21;99890.39;3692578;79;98925;-86
2022/06/08 12:47:57;;;;;;;3.27;1.82;;;;;;;32.63;36.30;99884.88;3682946;78;98772;-86
2022/06/08 12:53:02;;;;;;;5.62;2.33;;;;;;;32.44;33.64;99883.47;3685679;78;98466;-88
2022/06/08 12:58:02;;;;;;;5.15;2.50;;;;;;;32.16;33.45;99886.55;3662587;78;98632;-88
2022/06/08 13:03:20;;;;;;;4.28;2.42;;;;;;;31.69;33.93;99886.08;3689059;78;98777;-89
2022/06/08 13:08:26;;;;;;;4.72;2.60;;;;;;;31.41;35.01;99876.30;3678170;79;99079;-89
2022/06/08 13:13:32;;;;;;;3.70;2.05;;;;;;;31.79;35.73;99871.64;3690342;78;99484;-88
2022/06/08 13:18:35;;;;;;;6.12;2.40;;;;;;;32.04;36.25;99860.97;3694252;78;99070;-89
2022/06/08 13:23:36;;;;;;;6.50;2.12;;;;;;;31.99;37.92;99862.56;3688166;78;26236;-85
2022/06/08 13:28:37;;;;;;;3.87;2.25;;;;;;;32.44;38.56;99855.63;3663953;78;98496;-86
2022/06/08 13:33:58;;;;;;;4.95;2.42;;;;;;;31.95;35.21;99863.54;3693960;78;99111;-90
2022/06/08 13:39:14;;;;;;;4.58;1.90;;;;;;;31.19;35.95;99860.86;3678180;78;98752;-89
2022/06/08 13:44:25;;;;;;;6.25;2.12;;;;;;;31.17;37.65;99847.17;3685678;78;98715;-88
2022/06/08 13:49:30;;;;;;;4.10;1.65;;;;;;;31.19;37.12;99848.87;3697130;78;99053;-87
2022/06/08 13:54:41;;;;;;;4.12;1.95;;;;;;;31.24;37.93;99846.63;3684606;78;98287;-87
2022/06/08 13:59:44;;;;;;;4.05;2.27;;;;;;;31.26;37.21;99841.81;3665048;78;98450;-87
2022/06/08 14:04:47;;;;;;;3.40;2.17;;;;;;;30.94;37.05;99833.72;3680235;78;98852;-88
2022/06/08 14:15:13;;;;;;;3.92;1.75;;;;;;;30.98;37.11;99834.18;3676263;79;98680;-87
2022/06/08 14:20:32;;;;;;;4.53;2.00;;;;;;;31.03;37.44;99836.20;3678501;78;99029;-88
2022/06/08 14:25:33;;;;;;;2.65;1.80;;;;;;;30.92;37.09;99839.15;3668173;78;98984;-88
2022/06/08 14:30:35;;;;;;;4.87;1.85;;;;;;;30.71;36.37;99835.98;3677012;78;99055;-88
2022/06/08 14:35:41;;;;;;;2.67;1.55;;;;;;;30.56;37.71;99834.13;3698945;78;27612;-87
2022/06/08 14:40:42;;;;;;;3.92;1.40;;;;;;;30.01;35.66;99824.53;3680246;78;98858;-87
2022/06/08 14:45:46;;;;;;;5.50;1.50;;;;;;;29.58;36.02;99830.53;3687469;78;99222;-87
2022/06/08 14:50:49;;;;;;;4.05;1.70;;;;;;;29.42;37.47;99825.66;3671931;78;99030;-87
2022/06/08 15:01:18;;;;;;;1.82;1.25;;;;;;;29.17;38.21;99808.34;3702297;78;99267;-89
2022/06/08 15:06:20;;;;;;;3.17;1.50;;;;;;;28.93;39.88;99800.25;3685600;78;98281;-87
2022/06/08 15:16:51;;;;;;;7.33;2.50;;;;;;;28.45;39.59;99788.43;3685467;78;99392;-87
2022/06/08 15:21:53;;;;;;;2.12;1.50;;;;;;;27.91;40.02;99775.09;3693383;78;99016;-88
2022/06/08 15:26:57;;;;;;;3.95;1.82;;;;;;;27.79;41.18;99772.73;3670454;78;99106;-87
2022/06/08 15:31:58;;;;;;;2.50;1.80;;;;;;;27.69;41.40;99769.31;3675295;78;99091;-87
2022/06/08 15:37:02;;;;;;;3.67;1.70;;;;;;;27.62;41.71;99766.99;3681031;78;99031;-87
2022/06/08 15:42:06;;;;;;;4.40;2.10;;;;;;;27.54;41.12;99771.60;3602280;80;28175;-87
2022/06/08 15:47:10;;;;;;;5.10;2.10;;;;;;;27.26;41.39;99763.65;3641273;79;98552;-88
2022/06/08 15:52:19;;;;;;;4.67;2.30;;;;;;;27.12;41.59;99770.84;3701826;78;98929;-87
2022/06/08 15:57:20;;;;;;;5.90;2.00;;;;;;;26.98;41.85;99757.68;3676360;78;99232;-87
2022/06/08 16:02:23;;;;;;;9.38;2.35;;;;;;;26.73;41.89;99761.36;3673242;78;99020;-87
2022/06/08 16:07:24;;;;;;;7.08;2.10;;;;;;;26.60;41.96;99763.84;3674394;78;99146;-87
2022/06/08 16:12:25;;;;;;;4.08;2.08;;;;;;;26.47;42.15;99764.84;3671437;78;27413;-87
2022/06/08 16:17:26;;;;;;;5.40;2.35;;;;;;;26.33;42.79;99762.95;3671157;78;98850;-88
2022/06/08 16:22:27;;;;;;;3.42;2.30;;;;;;;26.11;43.19;99763.51;3674280;78;99070;-87
2022/06/08 16:27:29;;;;;;;8.50;3.02;;;;;;;25.92;43.60;99762.93;3694750;78;99218;-88
2022/06/08 16:32:30;;;;;;;7.70;3.10;;;;;;;25.75;44.10;99761.33;3677380;78;99103;-88
2022/06/08 16:37:32;;;;;;;5.25;2.87;;;;;;;25.58;44.62;99761.00;3690155;78;99065;-87
2022/06/08 16:42:33;;;;;;;7.03;3.50;;;;;;;25.46;44.87;99754.47;3678910;79;98847;-87
2022/06/08 16:47:35;;;;;;;6.10;3.27;;;;;;;25.27;45.35;99765.88;3613773;79;98548;-88
2022/06/08 16:52:36;;;;;;;8.03;3.17;;;;;;;25.12;45.61;99759.49;3558056;82;99074;-87
2022/06/08 17:02:57;;;;;;;8.03;3.80;;;;;;;24.87;46.29;99751.73;3678476;80;99032;-86
2022/06/08 17:07:58;;;;;;;6.15;3.20;;;;;;;24.73;46.58;99756.00;3661788;79;99072;-87
2022/06/08 17:12:59;;;;;;;5.90;3.05;;;;;;;24.67;46.82;99754.50;3648954;80;99156;-87
2022/06/08 17:18:01;;;;;;;5.20;2.97;;;;;;;24.56;47.16;99759.92;3652469;80;98629;-87
2022/06/08 17:23:02;;;;;;;9.15;4.10;;;;;;;24.41;47.07;99759.81;3632653;79;98992;-85
2022/06/08 17:28:04;;;;;;;5.75;2.90;;;;;;;24.25;47.16;99756.09;3654093;79;98938;-90
2022/06/08 17:33:07;;;;;;;6.75;2.70;;;;;;;24.19;47.42;99752.41;3639083;79;98601;-88
2022/06/08 17:38:10;;;;;;;8.30;3.35;;;;;;;24.09;47.39;99754.53;3655209;79;98974;-86
2022/06/08 17:43:11;;;;;;;5.87;3.27;;;;;;;24.03;47.69;99757.11;3573772;80;98700;-88
2022/06/08 17:48:12;;;;;;;6.50;3.25;;;;;;;23.89;47.84;99760.06;3601216;80;98777;-90
2022/06/08 17:53:16;;;;;;;6.53;3.20;;;;;;;23.74;47.89;99758.44;3642089;79;98521;-86
2022/06/08 17:58:18;;;;;;;5.95;2.92;;;;;;;23.67;47.85;99761.02;3678890;78;98530;-87
2022/06/08 18:03:19;;;;;;;8.98;3.22;;;;;;;23.59;47.72;99752.05;3691460;78;98587;-88
2022/06/08 18:08:21;;;;;;;13.78;3.22;;;;;;;23.43;47.28;99756.70;3693047;78;98742;-87
2022/06/08 18:13:24;;;;;;;7.28;2.47;;;;;;;23.32;47.70;99750.86;3702101;78;99254;-88
2022/06/08 18:18:25;;;;;;;4.75;2.05;;;;;;;23.18;47.75;99746.74;3679661;78;98694;-78
2022/06/08 18:23:26;;;;;;;5.00;2.17;;;;;;;23.06;47.75;99744.90;3682681;78;98282;-79
2022/06/08 18:28:29;;;;;;;4.95;2.00;;;;;;;22.98;47.82;99752.14;3682434;78;98859;-79
2022/06/08 18:33:30;;;;;;;4.87;2.45;;;;;;;22.89;48.01;99745.16;3697350;78;98973;-78
2022/06/08 18:38:31;;;;;;;4.15;2.05;;;;;;;22.78;48.25;99746.97;3679348;78;98659;-77
2022/06/08 18:43:37;;;;;;;5.22;2.12;;;;;;;22.64;48.20;99743.44;3534217;82;99119;-78
2022/06/08 18:48:38;;;;;;;3.85;2.02;;;;;;;22.55;48.63;99736.48;3597248;80;98673;-78
2022/06/08 18:53:41;;;;;;;4.87;2.50;;;;;;;22.43;48.78;99743.03;3536448;82;32682;-78
2022/06/08 18:58:43;;;;;;;6.25;2.60;;;;;;;22.31;49.36;99749.63;3508381;82;98800;-77
2022/06/08 19:03:46;;;;;;;7.30;2.65;;;;;;;22.18;49.96;99747.02;3597595;81;99157;-77
2022/06/08 19:08:50;;;;;;;3.75;2.08;;;;;;;22.06;50.66;99758.44;3590151;80;98743;-77
2022/06/08 19:13:51;;;;;;;6.47;2.85;;;;;;;21.95;51.14;99765.13;3592525;80;99180;-75
2022/06/08 19:24:12;;;;;;;4.33;2.25;;;;;;;21.74;52.73;99774.52;3607349;81;32430;-78
2022/06/08 19:29:13;;;;;;;7.20;3.02;;;;;;;21.65;55.03;99780.87;3601943;81;98494;-77
2022/06/08 19:34:16;;;;;;;5.17;2.80;;;;;;;21.54;56.42;99780.56;3589675;80;98974;-76
2022/06/08 19:39:19;;;;;;;4.95;2.80;;;;;;;21.45;59.18;99795.94;3618383;80;98621;-77
2022/06/08 19:44:26;;;;;;;6.75;2.80;;;;;;;21.34;61.37;99801.22;3624081;79;98732;-78
2022/06/08 19:49:27;;;;;;;6.40;3.40;;;;;;;21.22;63.17;99804.14;3618866;79;99000;-78
2022/06/08 19:54:30;;;;;;;7.42;3.22;;;;;;;21.07;64.90;99809.56;3623551;79;32477;-77
2022/06/08 19:59:31;;;;;;;5.60;3.42;;;;;;;20.94;66.24;99820.10;3630023;79;98800;-75
2022/06/08 20:04:32;;;;;;;6.65;3.62;;;;;;;20.79;67.69;99813.48;3633706;79;98419;-77
2022/06/08 20:09:33;;;;;;;7.15;3.45;;;;;;;20.65;68.82;99821.03;3618159;79;98570;-77
2022/06/08 20:14:34;;;;;;;7.05;4.37;;;;;;;20.54;70.07;99819.91;3632764;79;99151;-77
2022/06/08 20:19:35;;;;;;;7.62;4.08;;;;;;;20.42;70.72;99822.15;3634854;79;99171;-77
2022/06/08 20:24:37;;;;;;;7.58;4.55;;;;;;;20.31;71.79;99823.17;3630450;79;98593;-78
2022/06/08 20:29:38;;;;;;;7.53;4.53;;;;;;;20.20;73.08;99831.97;3588777;79;98378;-77
2022/06/08 20:34:39;;;;;;;7.97;4.17;;;;;;;20.08;73.91;99827.24;3600038;81;99572;-77
2022/06/08 20:39:40;;;;;;;8.68;5.03;;;;;;;19.95;74.41;99835.49;3678393;78;98691;-77
2022/06/08 20:44:43;;;;;;;7.05;4.95;;;;;;;19.86;75.28;99835.41;3661384;78;98606;-77
2022/06/08 20:49:44;;;;;;;8.15;5.05;;;;;;;19.75;76.14;99834.41;3685662;78;99226;-77
2022/06/08 20:54:46;;;;;;;8.68;5.35;;;;;;;19.66;76.69;99831.53;3708166;78;98613;-77
2022/06/08 20:59:47;;;;;;;9.25;5.35;;;;;;;19.56;76.91;99830.52;3701104;78;98142;-76
2022/06/08 21:04:49;;;;;;;11.85;6.15;;;;;;;19.48;77.33;99825.80;3674110;79;98424;-76
2022/06/08 21:09:51;;;;;;;8.78;5.47;;;;;;;19.39;78.87;99827.70;3682857;78;99152;-76
2022/06/08 21:14:52;;;;;;;9.90;6.12;;;;;;;19.29;79.25;99829.62;3694470;78;99151;-77
2022/06/08 21:19:53;;;;;;;11.20;6.30;;;;;;;19.22;79.63;99827.08;3657449;78;99023;-80
2022/06/08 21:24:54;;;;;;;11.00;6.87;;;;;;;19.13;80.22;99828.97;3679338;78;98783;-80
2022/06/08 21:29:55;;;;;;;13.50;6.92;;;;;;;19.04;80.49;99826.87;3687064;78;98743;-81
2022/06/08 21:34:56;;;;;;;10.45;6.78;;;;;;;18.99;81.57;99830.81;3688239;78;98929;-80
2022/06/08 21:39:58;;;;;;;11.40;7.95;;;;;;;18.93;81.42;99838.98;3698772;78;98682;-80
2022/06/08 21:44:59;;;;;;;12.10;7.20;;;;;;;18.85;82.10;99839.02;3686462;78;99247;-80
2022/06/08 21:50:01;;;;;;;14.93;8.63;;;;;;;18.79;82.78;99834.45;3569581;80;99261;-80
2022/06/08 21:55:02;;;;;;;14.28;7.92;;;;;;;18.73;83.28;99824.48;3637349;80;98884;-80
2022/06/08 22:00:13;;;;;;;13.32;8.90;;;;;;;18.68;83.71;99827.82;3654261;78;98234;-81
2022/06/08 22:05:11;;;;;;;12.05;8.25;;;;;;;18.61;84.29;99826.66;3644719;79;98730;-80
2022/06/08 22:10:13;;;;;;;13.28;9.65;;;;;;;18.56;84.92;99819.45;3632632;79;98869;-81
2022/06/08 22:15:19;;;;;;;14.43;11.10;;;;;;;18.51;85.08;99818.01;3682792;78;98035;-81
2022/06/08 22:20:22;;;;;;;13.90;10.48;;;;;;;18.46;85.77;99814.38;3663424;78;99299;-81
2022/06/08 22:25:28;;;;;;;13.05;9.75;;;;;;;18.41;86.21;99805.78;3671251;78;99607;-80
2022/06/08 22:30:29;;;;;;;13.50;10.17;;;;;;;18.34;86.55;99803.22;3669130;78;98198;-81
2022/06/08 22:35:34;;;;;;;15.03;9.80;;;;;;;18.30;87.16;99794.15;3640272;79;99031;-80
2022/06/08 22:40:35;;;;;;;20.08;14.95;;;;;;;18.24;87.43;99798.11;3611780;79;98692;-80
2022/06/08 22:45:37;;;;;;;16.87;12.83;;;;;;;18.19;87.51;99798.66;3585872;81;99266;-79
2022/06/08 22:50:41;;;;;;;20.72;16.12;;;;;;;18.11;87.90;99788.17;3580352;80;99466;-80
2022/06/08 22:55:45;;;;;;;20.30;15.70;;;;;;;18.08;88.47;99787.65;3588387;81;99175;-81
2022/06/08 23:00:47;;;;;;;19.82;16.23;;;;;;;18.03;88.70;99783.41;3586523;81;99390;-81
2022/06/08 23:05:50;;;;;;;19.92;15.23;;;;;;;17.99;89.54;99777.16;3583879;81;33005;-81
2022/06/08 23:21:14;;;;;;;21.67;15.37;;;;;;;17.83;89.66;99780.64;3592977;80;99367;-81
2022/06/08 23:26:15;;;;;;;19.30;16.00;;;;;;;17.77;90.23;99774.06;3540147;81;99143;-81
2022/06/08 23:31:16;;;;;;;20.08;15.78;;;;;;;17.74;91.03;99774.93;3565310;81;99617;-81
2022/06/08 23:36:17;;;;;;;23.10;16.80;;;;;;;17.71;91.01;99775.83;3575813;81;32633;-81
2022/06/08 23:41:18;;;;;;;23.75;17.15;;;;;;;17.68;91.62;99770.53;3597327;80;99335;-81
2022/06/08 23:46:19;;;;;;;21.95;16.45;;;;;;;17.66;92.14;99771.56;3666531;80;99145;-80
2022/06/08 23:51:20;;;;;;;23.73;17.40;;;;;;;17.62;92.24;99768.72;3647939;79;99382;-81
2022/06/08 23:56:23;;;;;;;19.30;16.05;;;;;;;17.56;91.80;99773.27;3683029;80;99444;-80
